sensor_id;sensor_type;location;lat;lon;timestamp;P1;durP1;ratioP1;P2;durP2;ratioP2
67585;SDS011;55785;47.946;20.540;2022-12-18T00:01:48;39.40;;;15.40;;
67585;SDS011;55785;47.946;20.540;2022-12-18T00:04:23;41.33;;;16.37;;
67585;SDS011;55785;47.946;20.540;2022-12-18T00:06:54;42.72;;;16.38;;
67585;SDS011;55785;47.946;20.540;2022-12-18T00:09:25;41.47;;;15.80;;
67585;SDS011;55785;47.946;20.540;2022-12-18T00:11:57;43.40;;;16.43;;
67585;SDS011;55785;47.946;20.540;2022-12-18T00:14:28;41.50;;;15.80;;
67585;SDS011;55785;47.946;20.540;2022-12-18T00:16:59;43.20;;;15.80;;
67585;SDS011;55785;47.946;20.540;2022-12-18T00:19:30;41.87;;;15.57;;
67585;SDS011;55785;47.946;20.540;2022-12-18T00:22:02;38.30;;;15.13;;
67585;SDS011;55785;47.946;20.540;2022-12-18T00:24:33;37.57;;;14.83;;
67585;SDS011;55785;47.946;20.540;2022-12-18T00:27:04;36.20;;;14.00;;
67585;SDS011;55785;47.946;20.540;2022-12-18T00:29:35;36.43;;;14.50;;
67585;SDS011;55785;47.946;20.540;2022-12-18T00:32:06;37.83;;;14.80;;
67585;SDS011;55785;47.946;20.540;2022-12-18T00:34:37;33.57;;;14.63;;
67585;SDS011;55785;47.946;20.540;2022-12-18T00:37:09;36.97;;;14.20;;
67585;SDS011;55785;47.946;20.540;2022-12-18T00:39:40;31.80;;;13.03;;
67585;SDS011;55785;47.946;20.540;2022-12-18T00:42:11;36.70;;;13.90;;
67585;SDS011;55785;47.946;20.540;2022-12-18T00:44:42;37.70;;;14.57;;
67585;SDS011;55785;47.946;20.540;2022-12-18T00:47:13;34.10;;;14.63;;
67585;SDS011;55785;47.946;20.540;2022-12-18T00:49:45;34.40;;;14.07;;
67585;SDS011;55785;47.946;20.540;2022-12-18T00:52:16;34.40;;;13.77;;
67585;SDS011;55785;47.946;20.540;2022-12-18T00:54:47;36.70;;;14.03;;
67585;SDS011;55785;47.946;20.540;2022-12-18T00:57:18;36.53;;;14.90;;
67585;SDS011;55785;47.946;20.540;2022-12-18T00:59:49;31.90;;;13.13;;
67585;SDS011;55785;47.946;20.540;2022-12-18T01:02:21;35.63;;;13.60;;
67585;SDS011;55785;47.946;20.540;2022-12-18T01:04:52;35.03;;;14.00;;
67585;SDS011;55785;47.946;20.540;2022-12-18T01:07:23;33.33;;;13.07;;
67585;SDS011;55785;47.946;20.540;2022-12-18T01:09:54;31.63;;;13.40;;
67585;SDS011;55785;47.946;20.540;2022-12-18T01:12:25;34.67;;;13.77;;
67585;SDS011;55785;47.946;20.540;2022-12-18T01:14:57;37.13;;;14.10;;
67585;SDS011;55785;47.946;20.540;2022-12-18T01:17:28;36.50;;;13.70;;
67585;SDS011;55785;47.946;20.540;2022-12-18T01:19:59;33.30;;;13.33;;
67585;SDS011;55785;47.946;20.540;2022-12-18T01:22:30;37.70;;;14.40;;
67585;SDS011;55785;47.946;20.540;2022-12-18T01:25:02;32.33;;;13.27;;
67585;SDS011;55785;47.946;20.540;2022-12-18T01:27:33;32.33;;;13.30;;
67585;SDS011;55785;47.946;20.540;2022-12-18T01:30:04;31.97;;;13.67;;
67585;SDS011;55785;47.946;20.540;2022-12-18T01:32:36;36.00;;;13.80;;
67585;SDS011;55785;47.946;20.540;2022-12-18T01:35:07;35.37;;;13.60;;
67585;SDS011;55785;47.946;20.540;2022-12-18T01:37:38;36.40;;;13.87;;
67585;SDS011;55785;47.946;20.540;2022-12-18T01:40:10;38.67;;;14.63;;
67585;SDS011;55785;47.946;20.540;2022-12-18T01:42:41;35.60;;;13.63;;
67585;SDS011;55785;47.946;20.540;2022-12-18T01:47:47;34.77;;;14.93;;
67585;SDS011;55785;47.946;20.540;2022-12-18T01:50:20;34.43;;;14.13;;
67585;SDS011;55785;47.946;20.540;2022-12-18T01:52:54;36.33;;;14.20;;
67585;SDS011;55785;47.946;20.540;2022-12-18T01:55:26;36.43;;;14.53;;
67585;SDS011;55785;47.946;20.540;2022-12-18T01:57:59;38.30;;;14.10;;
67585;SDS011;55785;47.946;20.540;2022-12-18T02:00:30;38.33;;;14.37;;
67585;SDS011;55785;47.946;20.540;2022-12-18T02:03:01;35.77;;;13.53;;
67585;SDS011;55785;47.946;20.540;2022-12-18T02:05:54;33.77;;;13.27;;
67585;SDS011;55785;47.946;20.540;2022-12-18T02:14:01;34.43;;;13.90;;
67585;SDS011;55785;47.946;20.540;2022-12-18T02:21:57;34.77;;;13.87;;
67585;SDS011;55785;47.946;20.540;2022-12-18T02:27:11;34.23;;;13.60;;
67585;SDS011;55785;47.946;20.540;2022-12-18T02:30:02;37.57;;;14.30;;
67585;SDS011;55785;47.946;20.540;2022-12-18T02:32:35;34.23;;;14.27;;
67585;SDS011;55785;47.946;20.540;2022-12-18T02:35:10;34.80;;;13.27;;
67585;SDS011;55785;47.946;20.540;2022-12-18T02:37:42;39.33;;;14.10;;
67585;SDS011;55785;47.946;20.540;2022-12-18T02:40:14;32.13;;;12.50;;
67585;SDS011;55785;47.946;20.540;2022-12-18T02:42:46;33.40;;;13.03;;
67585;SDS011;55785;47.946;20.540;2022-12-18T02:45:17;34.60;;;13.20;;
67585;SDS011;55785;47.946;20.540;2022-12-18T02:47:49;32.13;;;13.43;;
67585;SDS011;55785;47.946;20.540;2022-12-18T02:53:04;34.57;;;12.50;;
67585;SDS011;55785;47.946;20.540;2022-12-18T02:58:36;30.47;;;11.70;;
67585;SDS011;55785;47.946;20.540;2022-12-18T03:01:16;34.53;;;12.13;;
67585;SDS011;55785;47.946;20.540;2022-12-18T03:06:32;29.53;;;11.77;;
67585;SDS011;55785;47.946;20.540;2022-12-18T03:09:09;29.37;;;11.63;;
67585;SDS011;55785;47.946;20.540;2022-12-18T03:11:41;32.50;;;12.57;;
67585;SDS011;55785;47.946;20.540;2022-12-18T03:14:16;33.57;;;12.73;;
67585;SDS011;55785;47.946;20.540;2022-12-18T03:16:48;30.53;;;11.93;;
67585;SDS011;55785;47.946;20.540;2022-12-18T03:19:21;35.20;;;13.93;;
67585;SDS011;55785;47.946;20.540;2022-12-18T03:21:53;31.20;;;11.77;;
67585;SDS011;55785;47.946;20.540;2022-12-18T03:24:26;31.13;;;12.57;;
67585;SDS011;55785;47.946;20.540;2022-12-18T03:27:00;31.10;;;12.30;;
67585;SDS011;55785;47.946;20.540;2022-12-18T03:32:17;28.57;;;11.90;;
67585;SDS011;55785;47.946;20.540;2022-12-18T03:34:50;29.83;;;12.30;;
67585;SDS011;55785;47.946;20.540;2022-12-18T03:37:22;30.10;;;12.47;;
67585;SDS011;55785;47.946;20.540;2022-12-18T03:39:54;30.23;;;12.70;;
67585;SDS011;55785;47.946;20.540;2022-12-18T03:42:37;31.97;;;12.70;;
67585;SDS011;55785;47.946;20.540;2022-12-18T03:45:16;32.10;;;12.47;;
67585;SDS011;55785;47.946;20.540;2022-12-18T03:47:58;27.13;;;11.20;;
67585;SDS011;55785;47.946;20.540;2022-12-18T03:53:28;31.87;;;11.67;;
67585;SDS011;55785;47.946;20.540;2022-12-18T03:56:02;28.50;;;11.60;;
67585;SDS011;55785;47.946;20.540;2022-12-18T03:58:35;30.33;;;11.80;;
67585;SDS011;55785;47.946;20.540;2022-12-18T04:01:08;32.23;;;12.30;;
67585;SDS011;55785;47.946;20.540;2022-12-18T04:03:40;26.40;;;10.77;;
67585;SDS011;55785;47.946;20.540;2022-12-18T04:06:13;25.97;;;10.57;;
67585;SDS011;55785;47.946;20.540;2022-12-18T04:08:45;26.17;;;10.90;;
67585;SDS011;55785;47.946;20.540;2022-12-18T04:11:17;25.93;;;10.87;;
67585;SDS011;55785;47.946;20.540;2022-12-18T04:13:48;26.13;;;11.30;;
67585;SDS011;55785;47.946;20.540;2022-12-18T04:16:19;23.70;;;10.90;;
67585;SDS011;55785;47.946;20.540;2022-12-18T04:18:51;28.10;;;11.13;;
67585;SDS011;55785;47.946;20.540;2022-12-18T04:21:22;26.07;;;11.27;;
67585;SDS011;55785;47.946;20.540;2022-12-18T04:23:53;25.80;;;10.67;;
67585;SDS011;55785;47.946;20.540;2022-12-18T04:26:24;27.50;;;10.80;;
67585;SDS011;55785;47.946;20.540;2022-12-18T04:28:55;27.10;;;10.80;;
67585;SDS011;55785;47.946;20.540;2022-12-18T04:31:27;28.43;;;11.03;;
67585;SDS011;55785;47.946;20.540;2022-12-18T04:33:58;37.87;;;16.37;;
67585;SDS011;55785;47.946;20.540;2022-12-18T04:36:29;29.67;;;13.40;;
67585;SDS011;55785;47.946;20.540;2022-12-18T04:39:00;31.13;;;13.60;;
67585;SDS011;55785;47.946;20.540;2022-12-18T04:41:31;31.00;;;13.33;;
67585;SDS011;55785;47.946;20.540;2022-12-18T04:44:03;34.23;;;13.03;;
67585;SDS011;55785;47.946;20.540;2022-12-18T04:46:34;26.87;;;10.83;;
67585;SDS011;55785;47.946;20.540;2022-12-18T04:49:05;26.63;;;10.10;;
67585;SDS011;55785;47.946;20.540;2022-12-18T04:51:37;23.53;;;9.87;;
67585;SDS011;55785;47.946;20.540;2022-12-18T04:54:08;21.70;;;9.43;;
67585;SDS011;55785;47.946;20.540;2022-12-18T04:56:39;26.27;;;10.30;;
67585;SDS011;55785;47.946;20.540;2022-12-18T04:59:10;26.97;;;9.97;;
67585;SDS011;55785;47.946;20.540;2022-12-18T05:01:42;25.27;;;10.13;;
67585;SDS011;55785;47.946;20.540;2022-12-18T05:04:13;22.97;;;9.13;;
67585;SDS011;55785;47.946;20.540;2022-12-18T05:06:44;25.23;;;9.57;;
67585;SDS011;55785;47.946;20.540;2022-12-18T05:09:15;19.13;;;8.77;;
67585;SDS011;55785;47.946;20.540;2022-12-18T05:11:46;23.90;;;9.10;;
67585;SDS011;55785;47.946;20.540;2022-12-18T05:14:17;21.80;;;9.50;;
67585;SDS011;55785;47.946;20.540;2022-12-18T05:16:49;21.10;;;8.73;;
67585;SDS011;55785;47.946;20.540;2022-12-18T05:19:20;23.43;;;9.43;;
67585;SDS011;55785;47.946;20.540;2022-12-18T05:21:51;24.13;;;9.33;;
67585;SDS011;55785;47.946;20.540;2022-12-18T05:24:22;22.77;;;9.40;;
67585;SDS011;55785;47.946;20.540;2022-12-18T05:26:54;23.33;;;9.90;;
67585;SDS011;55785;47.946;20.540;2022-12-18T05:29:25;25.60;;;10.37;;
67585;SDS011;55785;47.946;20.540;2022-12-18T05:31:56;26.00;;;10.93;;
67585;SDS011;55785;47.946;20.540;2022-12-18T05:34:27;38.20;;;12.97;;
67585;SDS011;55785;47.946;20.540;2022-12-18T05:36:58;26.00;;;9.67;;
67585;SDS011;55785;47.946;20.540;2022-12-18T05:39:29;25.63;;;9.27;;
67585;SDS011;55785;47.946;20.540;2022-12-18T05:42:01;22.17;;;9.10;;
67585;SDS011;55785;47.946;20.540;2022-12-18T05:44:32;22.93;;;9.10;;
67585;SDS011;55785;47.946;20.540;2022-12-18T05:47:03;25.30;;;10.07;;
67585;SDS011;55785;47.946;20.540;2022-12-18T05:49:34;23.67;;;10.13;;
67585;SDS011;55785;47.946;20.540;2022-12-18T05:52:05;22.67;;;9.77;;
67585;SDS011;55785;47.946;20.540;2022-12-18T05:54:37;26.93;;;10.60;;
67585;SDS011;55785;47.946;20.540;2022-12-18T05:57:08;22.67;;;9.80;;
67585;SDS011;55785;47.946;20.540;2022-12-18T05:59:39;24.27;;;9.83;;
67585;SDS011;55785;47.946;20.540;2022-12-18T06:02:10;24.23;;;10.07;;
67585;SDS011;55785;47.946;20.540;2022-12-18T06:04:41;20.30;;;8.47;;
67585;SDS011;55785;47.946;20.540;2022-12-18T06:07:13;24.67;;;9.43;;
67585;SDS011;55785;47.946;20.540;2022-12-18T06:09:44;23.47;;;9.37;;
67585;SDS011;55785;47.946;20.540;2022-12-18T06:12:15;23.47;;;9.07;;
67585;SDS011;55785;47.946;20.540;2022-12-18T06:14:46;45.67;;;16.07;;
67585;SDS011;55785;47.946;20.540;2022-12-18T06:17:17;34.13;;;11.60;;
67585;SDS011;55785;47.946;20.540;2022-12-18T06:19:49;30.53;;;11.80;;
67585;SDS011;55785;47.946;20.540;2022-12-18T06:22:20;26.53;;;9.70;;
67585;SDS011;55785;47.946;20.540;2022-12-18T06:24:51;23.97;;;9.70;;
67585;SDS011;55785;47.946;20.540;2022-12-18T06:27:22;24.40;;;10.10;;
67585;SDS011;55785;47.946;20.540;2022-12-18T06:29:54;25.10;;;9.40;;
67585;SDS011;55785;47.946;20.540;2022-12-18T06:32:25;25.83;;;9.70;;
67585;SDS011;55785;47.946;20.540;2022-12-18T06:34:56;20.87;;;8.50;;
67585;SDS011;55785;47.946;20.540;2022-12-18T06:37:27;22.90;;;9.03;;
67585;SDS011;55785;47.946;20.540;2022-12-18T06:39:59;25.93;;;9.67;;
67585;SDS011;55785;47.946;20.540;2022-12-18T06:42:30;20.43;;;8.80;;
67585;SDS011;55785;47.946;20.540;2022-12-18T06:45:01;18.73;;;7.80;;
67585;SDS011;55785;47.946;20.540;2022-12-18T06:47:32;19.77;;;8.97;;
67585;SDS011;55785;47.946;20.540;2022-12-18T06:50:03;23.00;;;8.40;;
67585;SDS011;55785;47.946;20.540;2022-12-18T06:52:35;25.00;;;8.97;;
67585;SDS011;55785;47.946;20.540;2022-12-18T06:55:06;26.17;;;9.10;;
67585;SDS011;55785;47.946;20.540;2022-12-18T06:57:37;22.27;;;8.77;;
67585;SDS011;55785;47.946;20.540;2022-12-18T07:00:09;27.13;;;8.90;;
67585;SDS011;55785;47.946;20.540;2022-12-18T07:02:40;24.63;;;9.03;;
67585;SDS011;55785;47.946;20.540;2022-12-18T07:05:11;19.03;;;8.10;;
67585;SDS011;55785;47.946;20.540;2022-12-18T07:07:42;21.80;;;8.87;;
67585;SDS011;55785;47.946;20.540;2022-12-18T07:10:13;21.20;;;8.87;;
67585;SDS011;55785;47.946;20.540;2022-12-18T07:12:45;22.90;;;9.43;;
67585;SDS011;55785;47.946;20.540;2022-12-18T07:15:16;22.53;;;8.83;;
67585;SDS011;55785;47.946;20.540;2022-12-18T07:17:47;22.77;;;8.87;;
67585;SDS011;55785;47.946;20.540;2022-12-18T07:20:18;21.00;;;8.20;;
67585;SDS011;55785;47.946;20.540;2022-12-18T07:22:49;20.67;;;7.87;;
67585;SDS011;55785;47.946;20.540;2022-12-18T07:25:21;22.00;;;8.73;;
67585;SDS011;55785;47.946;20.540;2022-12-18T07:27:52;24.00;;;8.93;;
67585;SDS011;55785;47.946;20.540;2022-12-18T07:30:23;24.03;;;8.83;;
67585;SDS011;55785;47.946;20.540;2022-12-18T07:32:54;20.73;;;8.07;;
67585;SDS011;55785;47.946;20.540;2022-12-18T07:35:25;23.50;;;9.43;;
67585;SDS011;55785;47.946;20.540;2022-12-18T07:37:57;20.40;;;8.73;;
67585;SDS011;55785;47.946;20.540;2022-12-18T07:40:28;21.20;;;8.53;;
67585;SDS011;55785;47.946;20.540;2022-12-18T07:42:59;21.53;;;8.33;;
67585;SDS011;55785;47.946;20.540;2022-12-18T07:45:30;20.43;;;8.23;;
67585;SDS011;55785;47.946;20.540;2022-12-18T07:48:01;23.60;;;9.80;;
67585;SDS011;55785;47.946;20.540;2022-12-18T07:50:33;25.43;;;10.67;;
67585;SDS011;55785;47.946;20.540;2022-12-18T07:53:04;41.67;;;15.43;;
67585;SDS011;55785;47.946;20.540;2022-12-18T07:55:35;24.20;;;9.37;;
67585;SDS011;55785;47.946;20.540;2022-12-18T07:58:06;23.90;;;9.57;;
67585;SDS011;55785;47.946;20.540;2022-12-18T08:00:38;18.63;;;8.57;;
67585;SDS011;55785;47.946;20.540;2022-12-18T08:03:09;25.50;;;9.40;;
67585;SDS011;55785;47.946;20.540;2022-12-18T08:05:40;24.37;;;8.83;;
67585;SDS011;55785;47.946;20.540;2022-12-18T08:08:11;23.87;;;9.60;;
67585;SDS011;55785;47.946;20.540;2022-12-18T08:10:43;22.80;;;9.17;;
67585;SDS011;55785;47.946;20.540;2022-12-18T08:13:14;19.17;;;8.17;;
67585;SDS011;55785;47.946;20.540;2022-12-18T08:15:45;22.20;;;9.07;;
67585;SDS011;55785;47.946;20.540;2022-12-18T08:18:16;23.97;;;9.43;;
67585;SDS011;55785;47.946;20.540;2022-12-18T08:20:48;24.17;;;9.83;;
67585;SDS011;55785;47.946;20.540;2022-12-18T08:23:19;27.23;;;10.53;;
67585;SDS011;55785;47.946;20.540;2022-12-18T08:25:50;23.63;;;9.70;;
67585;SDS011;55785;47.946;20.540;2022-12-18T08:28:21;29.77;;;11.57;;
67585;SDS011;55785;47.946;20.540;2022-12-18T08:30:52;33.10;;;12.43;;
67585;SDS011;55785;47.946;20.540;2022-12-18T08:33:24;29.03;;;12.33;;
67585;SDS011;55785;47.946;20.540;2022-12-18T08:35:55;36.57;;;12.60;;
67585;SDS011;55785;47.946;20.540;2022-12-18T08:38:26;32.83;;;12.40;;
67585;SDS011;55785;47.946;20.540;2022-12-18T08:41:01;35.63;;;12.57;;
67585;SDS011;55785;47.946;20.540;2022-12-18T08:43:32;35.53;;;13.40;;
67585;SDS011;55785;47.946;20.540;2022-12-18T08:46:03;30.73;;;11.13;;
67585;SDS011;55785;47.946;20.540;2022-12-18T08:48:35;35.97;;;13.00;;
67585;SDS011;55785;47.946;20.540;2022-12-18T08:51:06;37.37;;;13.40;;
67585;SDS011;55785;47.946;20.540;2022-12-18T08:53:37;36.50;;;12.73;;
67585;SDS011;55785;47.946;20.540;2022-12-18T08:56:09;33.80;;;12.30;;
67585;SDS011;55785;47.946;20.540;2022-12-18T08:58:40;35.87;;;13.20;;
67585;SDS011;55785;47.946;20.540;2022-12-18T09:01:12;31.90;;;12.50;;
67585;SDS011;55785;47.946;20.540;2022-12-18T09:03:43;36.67;;;13.40;;
67585;SDS011;55785;47.946;20.540;2022-12-18T09:06:15;35.30;;;12.43;;
67585;SDS011;55785;47.946;20.540;2022-12-18T09:08:46;31.27;;;11.47;;
67585;SDS011;55785;47.946;20.540;2022-12-18T09:11:21;35.43;;;13.13;;
67585;SDS011;55785;47.946;20.540;2022-12-18T09:13:53;34.67;;;13.15;;
67585;SDS011;55785;47.946;20.540;2022-12-18T09:16:25;33.17;;;12.27;;
67585;SDS011;55785;47.946;20.540;2022-12-18T09:18:57;34.13;;;12.33;;
67585;SDS011;55785;47.946;20.540;2022-12-18T09:21:33;34.17;;;13.80;;
67585;SDS011;55785;47.946;20.540;2022-12-18T09:24:05;31.95;;;12.68;;
67585;SDS011;55785;47.946;20.540;2022-12-18T09:26:36;34.10;;;13.47;;
67585;SDS011;55785;47.946;20.540;2022-12-18T09:29:07;29.03;;;11.53;;
67585;SDS011;55785;47.946;20.540;2022-12-18T09:31:39;33.47;;;12.03;;
67585;SDS011;55785;47.946;20.540;2022-12-18T09:34:10;35.90;;;12.70;;
67585;SDS011;55785;47.946;20.540;2022-12-18T09:36:41;31.93;;;13.13;;
67585;SDS011;55785;47.946;20.540;2022-12-18T09:39:12;39.57;;;13.37;;
67585;SDS011;55785;47.946;20.540;2022-12-18T09:41:53;32.07;;;12.00;;
67585;SDS011;55785;47.946;20.540;2022-12-18T09:44:44;33.23;;;13.23;;
67585;SDS011;55785;47.946;20.540;2022-12-18T09:47:18;36.70;;;12.30;;
67585;SDS011;55785;47.946;20.540;2022-12-18T09:49:51;31.57;;;12.90;;
67585;SDS011;55785;47.946;20.540;2022-12-18T09:52:28;36.10;;;13.03;;
67585;SDS011;55785;47.946;20.540;2022-12-18T09:57:49;36.23;;;13.60;;
67585;SDS011;55785;47.946;20.540;2022-12-18T10:00:23;36.20;;;14.27;;
67585;SDS011;55785;47.946;20.540;2022-12-18T10:03:13;38.40;;;14.77;;
67585;SDS011;55785;47.946;20.540;2022-12-18T10:11:43;36.83;;;13.87;;
67585;SDS011;55785;47.946;20.540;2022-12-18T10:13:52;33.80;;;12.73;;
67585;SDS011;55785;47.946;20.540;2022-12-18T10:16:36;32.37;;;13.60;;
67585;SDS011;55785;47.946;20.540;2022-12-18T10:19:25;36.60;;;13.80;;
67585;SDS011;55785;47.946;20.540;2022-12-18T10:22:14;34.53;;;13.60;;
67585;SDS011;55785;47.946;20.540;2022-12-18T10:27:18;35.97;;;12.73;;
67585;SDS011;55785;47.946;20.540;2022-12-18T10:29:52;34.40;;;13.90;;
67585;SDS011;55785;47.946;20.540;2022-12-18T10:32:25;35.30;;;13.13;;
67585;SDS011;55785;47.946;20.540;2022-12-18T10:34:57;37.70;;;14.67;;
67585;SDS011;55785;47.946;20.540;2022-12-18T10:37:29;36.27;;;14.07;;
67585;SDS011;55785;47.946;20.540;2022-12-18T10:40:14;36.83;;;14.20;;
67585;SDS011;55785;47.946;20.540;2022-12-18T10:42:45;39.27;;;14.30;;
67585;SDS011;55785;47.946;20.540;2022-12-18T10:45:17;40.03;;;14.77;;
67585;SDS011;55785;47.946;20.540;2022-12-18T10:47:48;37.43;;;13.90;;
67585;SDS011;55785;47.946;20.540;2022-12-18T10:53:00;36.43;;;14.50;;
67585;SDS011;55785;47.946;20.540;2022-12-18T10:55:34;37.35;;;14.20;;
67585;SDS011;55785;47.946;20.540;2022-12-18T11:03:45;43.30;;;15.87;;
67585;SDS011;55785;47.946;20.540;2022-12-18T11:06:18;42.27;;;16.63;;
67585;SDS011;55785;47.946;20.540;2022-12-18T11:09:03;43.40;;;14.80;;
67585;SDS011;55785;47.946;20.540;2022-12-18T11:11:34;39.90;;;14.97;;
67585;SDS011;55785;47.946;20.540;2022-12-18T11:14:06;44.37;;;16.47;;
67585;SDS011;55785;47.946;20.540;2022-12-18T11:16:43;39.23;;;15.33;;
67585;SDS011;55785;47.946;20.540;2022-12-18T11:19:19;44.47;;;16.27;;
67585;SDS011;55785;47.946;20.540;2022-12-18T11:21:51;40.90;;;15.60;;
67585;SDS011;55785;47.946;20.540;2022-12-18T11:24:25;43.07;;;16.00;;
67585;SDS011;55785;47.946;20.540;2022-12-18T11:26:58;39.00;;;15.70;;
67585;SDS011;55785;47.946;20.540;2022-12-18T11:29:34;39.20;;;14.97;;
67585;SDS011;55785;47.946;20.540;2022-12-18T11:32:18;37.03;;;14.90;;
67585;SDS011;55785;47.946;20.540;2022-12-18T11:34:57;40.97;;;16.03;;
67585;SDS011;55785;47.946;20.540;2022-12-18T11:37:29;42.07;;;14.80;;
67585;SDS011;55785;47.946;20.540;2022-12-18T11:40:11;37.27;;;14.80;;
67585;SDS011;55785;47.946;20.540;2022-12-18T11:42:46;39.63;;;15.73;;
67585;SDS011;55785;47.946;20.540;2022-12-18T11:45:28;38.20;;;15.83;;
67585;SDS011;55785;47.946;20.540;2022-12-18T11:48:04;45.27;;;18.23;;
67585;SDS011;55785;47.946;20.540;2022-12-18T11:50:50;43.03;;;17.60;;
67585;SDS011;55785;47.946;20.540;2022-12-18T11:53:22;44.67;;;16.90;;
67585;SDS011;55785;47.946;20.540;2022-12-18T11:56:00;37.10;;;15.57;;
67585;SDS011;55785;47.946;20.540;2022-12-18T12:01:33;43.47;;;16.60;;
67585;SDS011;55785;47.946;20.540;2022-12-18T12:30:30;43.10;;;16.93;;
67585;SDS011;55785;47.946;20.540;2022-12-18T12:35:44;40.57;;;15.73;;
67585;SDS011;55785;47.946;20.540;2022-12-18T12:38:24;38.17;;;14.10;;
67585;SDS011;55785;47.946;20.540;2022-12-18T12:41:07;38.30;;;16.07;;
67585;SDS011;55785;47.946;20.540;2022-12-18T12:43:48;45.80;;;17.80;;
67585;SDS011;55785;47.946;20.540;2022-12-18T12:46:19;49.20;;;19.53;;
67585;SDS011;55785;47.946;20.540;2022-12-18T12:48:55;40.83;;;15.93;;
67585;SDS011;55785;47.946;20.540;2022-12-18T12:51:37;49.75;;;18.17;;
67585;SDS011;55785;47.946;20.540;2022-12-18T12:54:15;51.27;;;18.27;;
67585;SDS011;55785;47.946;20.540;2022-12-18T12:56:51;49.17;;;17.93;;
67585;SDS011;55785;47.946;20.540;2022-12-18T13:02:04;49.83;;;18.73;;
67585;SDS011;55785;47.946;20.540;2022-12-18T13:04:50;54.63;;;19.30;;
67585;SDS011;55785;47.946;20.540;2022-12-18T13:07:29;47.03;;;17.07;;
67585;SDS011;55785;47.946;20.540;2022-12-18T13:13:03;44.80;;;16.23;;
67585;SDS011;55785;47.946;20.540;2022-12-18T13:15:39;49.90;;;16.97;;
67585;SDS011;55785;47.946;20.540;2022-12-18T13:20:42;46.10;;;16.93;;
67585;SDS011;55785;47.946;20.540;2022-12-18T13:33:53;47.53;;;17.50;;
67585;SDS011;55785;47.946;20.540;2022-12-18T13:36:40;48.13;;;17.30;;
67585;SDS011;55785;47.946;20.540;2022-12-18T13:41:46;51.33;;;17.87;;
67585;SDS011;55785;47.946;20.540;2022-12-18T13:46:49;52.27;;;18.93;;
67585;SDS011;55785;47.946;20.540;2022-12-18T13:51:55;47.10;;;16.90;;
67585;SDS011;55785;47.946;20.540;2022-12-18T13:54:32;47.20;;;18.07;;
67585;SDS011;55785;47.946;20.540;2022-12-18T13:57:05;50.30;;;18.37;;
67585;SDS011;55785;47.946;20.540;2022-12-18T13:59:37;49.50;;;18.13;;
67585;SDS011;55785;47.946;20.540;2022-12-18T14:04:46;55.50;;;19.07;;
67585;SDS011;55785;47.946;20.540;2022-12-18T14:07:18;50.47;;;18.33;;
67585;SDS011;55785;47.946;20.540;2022-12-18T14:09:52;51.63;;;19.23;;
67585;SDS011;55785;47.946;20.540;2022-12-18T14:12:26;55.90;;;20.17;;
67585;SDS011;55785;47.946;20.540;2022-12-18T14:14:57;61.20;;;20.37;;
67585;SDS011;55785;47.946;20.540;2022-12-18T14:17:30;60.77;;;20.63;;
67585;SDS011;55785;47.946;20.540;2022-12-18T14:20:02;58.37;;;20.17;;
67585;SDS011;55785;47.946;20.540;2022-12-18T14:22:33;59.03;;;19.80;;
67585;SDS011;55785;47.946;20.540;2022-12-18T14:25:15;62.47;;;21.93;;
67585;SDS011;55785;47.946;20.540;2022-12-18T14:27:49;57.50;;;20.27;;
67585;SDS011;55785;47.946;20.540;2022-12-18T14:33:11;60.27;;;19.77;;
67585;SDS011;55785;47.946;20.540;2022-12-18T14:36:04;57.53;;;19.43;;
67585;SDS011;55785;47.946;20.540;2022-12-18T14:38:37;63.53;;;20.10;;
67585;SDS011;55785;47.946;20.540;2022-12-18T14:41:13;55.37;;;19.23;;
67585;SDS011;55785;47.946;20.540;2022-12-18T14:43:45;63.60;;;20.67;;
67585;SDS011;55785;47.946;20.540;2022-12-18T14:46:28;58.30;;;19.97;;
67585;SDS011;55785;47.946;20.540;2022-12-18T14:49:03;53.60;;;18.50;;
67585;SDS011;55785;47.946;20.540;2022-12-18T14:51:35;53.42;;;17.35;;
67585;SDS011;55785;47.946;20.540;2022-12-18T14:54:14;57.30;;;19.53;;
67585;SDS011;55785;47.946;20.540;2022-12-18T14:56:46;59.07;;;19.67;;
67585;SDS011;55785;47.946;20.540;2022-12-18T14:59:21;62.83;;;20.13;;
67585;SDS011;55785;47.946;20.540;2022-12-18T15:04:43;59.20;;;18.67;;
67585;SDS011;55785;47.946;20.540;2022-12-18T15:07:18;56.93;;;17.50;;
67585;SDS011;55785;47.946;20.540;2022-12-18T15:15:05;60.40;;;19.73;;
67585;SDS011;55785;47.946;20.540;2022-12-18T15:17:36;61.90;;;19.73;;
67585;SDS011;55785;47.946;20.540;2022-12-18T15:20:09;55.70;;;18.97;;
67585;SDS011;55785;47.946;20.540;2022-12-18T15:22:40;63.47;;;20.63;;
67585;SDS011;55785;47.946;20.540;2022-12-18T15:25:30;57.53;;;20.07;;
67585;SDS011;55785;47.946;20.540;2022-12-18T15:28:02;61.03;;;19.20;;
67585;SDS011;55785;47.946;20.540;2022-12-18T15:30:34;58.83;;;18.73;;
67585;SDS011;55785;47.946;20.540;2022-12-18T15:33:25;58.13;;;18.67;;
67585;SDS011;55785;47.946;20.540;2022-12-18T15:35:57;57.13;;;18.37;;
67585;SDS011;55785;47.946;20.540;2022-12-18T15:38:28;58.27;;;18.90;;
67585;SDS011;55785;47.946;20.540;2022-12-18T15:41:00;57.60;;;19.03;;
67585;SDS011;55785;47.946;20.540;2022-12-18T15:43:31;63.63;;;19.63;;
67585;SDS011;55785;47.946;20.540;2022-12-18T15:46:12;60.20;;;18.93;;
67585;SDS011;55785;47.946;20.540;2022-12-18T15:48:45;58.40;;;18.57;;
67585;SDS011;55785;47.946;20.540;2022-12-18T15:53:47;53.97;;;16.67;;
67585;SDS011;55785;47.946;20.540;2022-12-18T15:56:19;53.33;;;17.77;;
67585;SDS011;55785;47.946;20.540;2022-12-18T15:58:51;54.43;;;19.20;;
67585;SDS011;55785;47.946;20.540;2022-12-18T16:01:26;61.63;;;19.37;;
67585;SDS011;55785;47.946;20.540;2022-12-18T16:03:58;48.25;;;17.55;;
67585;SDS011;55785;47.946;20.540;2022-12-18T16:06:29;62.37;;;19.73;;
67585;SDS011;55785;47.946;20.540;2022-12-18T16:09:00;52.50;;;17.77;;
67585;SDS011;55785;47.946;20.540;2022-12-18T16:11:32;61.77;;;18.00;;
67585;SDS011;55785;47.946;20.540;2022-12-18T16:14:17;55.30;;;18.70;;
67585;SDS011;55785;47.946;20.540;2022-12-18T16:16:50;57.57;;;18.80;;
67585;SDS011;55785;47.946;20.540;2022-12-18T16:19:22;55.43;;;18.23;;
67585;SDS011;55785;47.946;20.540;2022-12-18T16:21:54;60.70;;;18.50;;
67585;SDS011;55785;47.946;20.540;2022-12-18T16:24:29;54.97;;;18.13;;
67585;SDS011;55785;47.946;20.540;2022-12-18T16:27:01;56.37;;;18.37;;
67585;SDS011;55785;47.946;20.540;2022-12-18T16:29:32;61.10;;;19.27;;
67585;SDS011;55785;47.946;20.540;2022-12-18T16:32:03;65.00;;;21.10;;
67585;SDS011;55785;47.946;20.540;2022-12-18T16:34:34;56.10;;;19.10;;
67585;SDS011;55785;47.946;20.540;2022-12-18T16:37:07;54.50;;;18.17;;
67585;SDS011;55785;47.946;20.540;2022-12-18T16:39:38;55.53;;;17.80;;
67585;SDS011;55785;47.946;20.540;2022-12-18T16:42:11;52.03;;;18.57;;
67585;SDS011;55785;47.946;20.540;2022-12-18T16:44:43;53.03;;;17.97;;
67585;SDS011;55785;47.946;20.540;2022-12-18T16:47:15;54.77;;;18.37;;
67585;SDS011;55785;47.946;20.540;2022-12-18T16:49:46;54.17;;;17.50;;